Bordeaux-Mérignac Airport

LFBD · Nouvelle-Aquitaine, 法国

罗盘
风向 的 Bordeaux-Mérignac Airport 5/23
风: 0 kt, 0 beaufort


改变
0 1.000 2.000 3.000 4.000 5.000
垂直能见度
METAR LFBE 030200Z AUTO 00000KT 0800 R27/1000U FG VV/// 12/11 Q1025 NOSIG

METAR Bordeaux-Mérignac Airport - LFBD/BOD

Bordeaux-Mérignac Airport是Bordeaux/Mérignac,法国中的大型机场。 该机场有2条跑道: 5/23 和 11/29. 该领域的国际民航组织标志是LFBD 它的国际航空运输协会代码是BOD.

这份报告是针对2022年10月3日 04:00, 当地时间在Bergerac-Roumanière Airport进行的。

机场观察

可变方向的风很小或没有风。

可见度为800 m。 跑道27的能见度为1.000 m 和 增加。

垂直能见度为0 ft 没有观察到天花板。

当前天气为多雾路段。 温度和风寒是12 °C。 露点为11 °C,相对湿度为94%。 海平面上的气压为1025 hPa (QNH)。

白天

今天,太阳从08:03升起,在19:40降落。 这适用于Bordeaux-Mérignac Airport,世界夏令时可能有所不同。 当地时间与世界标准时间之间的时差为+2 小时。 夏令时目前正在进行中。

公司介绍

在这个机场,你可以找到飞行俱乐部。 本场上唯一已知的公司是CAPAM。

体会

到Vliegles.nl去找飞行课程,跳伞和其他飞行体验。 浏览页面,了解Bordeaux-Mérignac Airport附近所有可用的活动。 你也可以使用搜索功能来寻找你所在地附近的特定飞行课程、跳伞或其他飞行体验。

警示语

垂直能见度为0 ft。
跑道27处的能见度为1.000 m 和 增加。

跑道

Id 标题 侧风 逆风 侧风 %
5/23 046°-226°
11/29 107°-287°

逆风成分最大的方向会被突出显示,并用于横风计算。 这并不一定意味着这个方向在使用。

乌云

0 ft VV 垂直能见度

温度 & 天气

天气 多雾路段
温度 12 °C
露点 11 °C
相对湿度 94%
Kp-index 3 (0-9)

白天

日出
07:58 (3h 29m)
中午
13:46
日落
19:35

小工具

你想在你的网站上有一个关于Bordeaux-Mérignac Airport的当前航空天气(METAR)的小部件吗?

</> 显示HTML代码

我们和第三方通过cookies跟踪您在我们网站上的上网行为。如果您继续,我们认为您同意我们的cookie政策。 了解更多